Search for airport 
image banner adimage banner adimage banner ad
image banner ad

CL72 - Camp 8

Located in Malibu, United States

ICAO - CL72, IATA -

Data provided by Airmate  

General information

Coordinates: N34°3'42" W118°38'50"
Elevation is 1525 feet MSL.
Magnetic variation is 14° East
View others Airports in California

Operational data

Special qualification required
Current time UTC:
Current local time:
Weather at : KSMO - Santa Monica Muni ( 19 km )
METAR: KSMO 210151Z 23003KT 10SM CLR 20/17 A2991 RMK AO2 SLP128 T02000167
TAF: KSMO 202334Z 2100/2124 24008KT P6SM SKC FM210300 VRB03KT P6SM SKC FM211000 10005KT 5SM HZ SCT004 FM211900 23008KT P6SM SKC
View NOTAMs / SUP AIP / TFR affecting this airport [VIEW]
Communications frequencies: [VIEW]

Runways:

Airport contact information

Address: Malibu United States

Satellite view of CL72